createdAt,value
2023-03-07T00:04:25.273Z,6.15
2023-03-07T00:06:52.293Z,5.32
2023-03-07T00:13:07.340Z,7.60
2023-03-07T00:15:40.854Z,6.93
2023-03-07T00:18:54.086Z,8.02
2023-03-07T00:24:17.609Z,6.38
2023-03-07T00:26:53.014Z,5.53
2023-03-07T00:33:51.733Z,7.15
2023-03-07T00:42:51.971Z,6.30
2023-03-07T00:45:24.973Z,7.28
2023-03-07T00:48:18.383Z,6.13
2023-03-07T00:53:40.987Z,5.85
2023-03-07T00:56:22.674Z,7.20
2023-03-07T00:59:03.249Z,7.07
2023-03-07T01:01:46.580Z,5.95
2023-03-07T01:04:13.616Z,5.72
2023-03-07T01:06:42.995Z,6.82
2023-03-07T01:13:57.197Z,6.40
2023-03-07T01:16:29.992Z,5.15
2023-03-07T01:19:03.144Z,6.78
2023-03-07T01:24:16.254Z,5.47
2023-03-07T01:26:49.199Z,5.75
2023-03-07T01:29:52.679Z,6.60
2023-03-07T01:35:06.888Z,5.30
2023-03-07T01:41:09.448Z,6.50
2023-03-07T01:43:39.047Z,6.45
2023-03-07T01:49:05.166Z,6.18
2023-03-07T01:51:36.412Z,5.82
2023-03-07T01:56:40.520Z,5.70
2023-03-07T01:59:08.434Z,7.32
2023-03-07T02:01:36.657Z,5.18
2023-03-07T02:04:39.709Z,5.70
2023-03-07T02:07:06.884Z,6.20
2023-03-07T02:09:35.374Z,6.10
2023-03-07T02:14:52.253Z,5.55
2023-03-07T02:30:58.030Z,6.10
2023-03-07T02:33:25.167Z,7.65
2023-03-07T02:43:27.638Z,5.80
2023-03-07T02:45:55.722Z,5.63
2023-03-07T02:48:48.525Z,5.10
2023-03-07T02:58:47.379Z,5.50
2023-03-07T03:01:14.193Z,6.28
2023-03-07T03:04:23.606Z,5.95
2023-03-07T03:06:50.475Z,5.15
2023-03-07T03:09:33.065Z,6.13
2023-03-07T03:14:50.717Z,4.18
2023-03-07T03:17:17.684Z,7.05
2023-03-07T03:19:44.523Z,6.20
2023-03-07T03:22:15.548Z,6.50
2023-03-07T03:25:09.805Z,6.22
2023-03-07T03:30:45.286Z,5.65
2023-03-07T03:33:12.208Z,6.32
2023-03-07T03:35:39.987Z,5.25
2023-03-07T03:38:06.813Z,6.63
2023-03-07T03:43:08.912Z,5.43
2023-03-07T03:45:37.018Z,5.97
2023-03-07T03:51:14.575Z,5.30
2023-03-07T03:53:43.984Z,5.65
2023-03-07T04:00:01.143Z,6.18
2023-03-07T04:02:39.492Z,5.25
2023-03-07T04:05:06.995Z,4.68
2023-03-07T04:07:33.765Z,5.40
2023-03-07T04:15:52.202Z,6.50
2023-03-07T04:18:19.390Z,5.97
2023-03-07T04:20:47.783Z,6.00
2023-03-07T04:26:45.982Z,5.22
2023-03-07T04:29:42.303Z,5.20
2023-03-07T04:32:12.079Z,5.47
2023-03-07T04:38:19.844Z,5.30
2023-03-07T04:40:49.784Z,5.97
2023-03-07T04:43:16.531Z,5.03
2023-03-07T04:45:43.384Z,5.30
2023-03-07T04:48:38.550Z,4.90
2023-03-07T04:51:05.637Z,5.22
2023-03-07T04:57:09.278Z,4.82
2023-03-07T04:59:39.127Z,5.63
2023-03-07T05:02:49.140Z,6.15
2023-03-07T05:08:22.647Z,5.85
2023-03-07T05:10:49.412Z,6.75
2023-03-07T05:13:16.137Z,6.97
2023-03-07T05:21:44.166Z,5.25
2023-03-07T05:24:11.114Z,5.05
2023-03-07T05:29:09.339Z,5.53
2023-03-07T05:31:39.582Z,6.68
2023-03-07T05:34:10.854Z,5.68
2023-03-07T05:36:39.909Z,5.35
2023-03-07T05:39:47.083Z,5.78
2023-03-07T05:42:13.792Z,6.25
2023-03-07T05:44:40.537Z,7.38
2023-03-07T05:47:07.815Z,7.10
2023-03-07T05:49:34.652Z,6.13
2023-03-07T05:52:01.614Z,6.57
2023-03-07T05:54:28.481Z,8.07
2023-03-07T05:56:55.417Z,5.85
2023-03-07T06:00:06.493Z,6.75
2023-03-07T06:02:33.573Z,6.28
2023-03-07T06:05:00.437Z,5.80
2023-03-07T06:07:27.320Z,5.00
2023-03-07T06:09:54.389Z,5.60
2023-03-07T06:16:59.028Z,6.40
2023-03-07T06:22:31.896Z,5.72
2023-03-07T06:24:58.781Z,7.53
2023-03-07T06:27:25.603Z,5.32
2023-03-07T06:29:52.465Z,5.65
2023-03-07T06:32:19.284Z,6.85
2023-03-07T06:34:46.107Z,6.75
2023-03-07T06:42:18.947Z,7.05
2023-03-07T06:45:10.511Z,6.80
2023-03-07T06:47:37.227Z,5.75
2023-03-07T06:50:04.280Z,7.82
2023-03-07T06:52:35.050Z,8.00
2023-03-07T06:55:01.784Z,6.25
2023-03-07T06:57:29.316Z,6.38
2023-03-07T06:59:56.167Z,8.52
2023-03-07T07:02:22.988Z,6.80
2023-03-07T07:04:51.968Z,6.32
2023-03-07T07:07:18.709Z,6.88
2023-03-07T07:09:48.419Z,6.63
2023-03-07T07:12:43.189Z,5.93
2023-03-07T07:16:05.666Z,5.47
2023-03-07T07:22:12.730Z,7.78
2023-03-07T07:24:44.113Z,8.15
2023-03-07T07:27:12.613Z,8.50
2023-03-07T07:29:39.459Z,8.73
2023-03-07T07:32:07.349Z,9.95
2023-03-07T07:34:57.808Z,10.32
2023-03-07T08:02:05.946Z,9.75
2023-03-07T08:04:34.231Z,9.80
2023-03-07T08:07:04.370Z,9.23
2023-03-07T08:19:19.997Z,10.32
2023-03-07T08:22:08.785Z,10.73
2023-03-07T08:24:40.918Z,9.65
2023-03-07T08:29:35.347Z,12.00
2023-03-07T08:34:43.111Z,11.73
2023-03-07T08:37:10.457Z,13.23
2023-03-07T08:39:37.398Z,13.32
2023-03-07T08:49:24.881Z,13.52
2023-03-07T08:51:51.737Z,14.20
2023-03-07T09:04:20.187Z,13.77
2023-03-07T09:07:04.378Z,12.43
2023-03-07T09:09:34.055Z,11.35
2023-03-07T09:12:03.200Z,12.57
2023-03-07T09:14:42.321Z,12.07
2023-03-07T09:17:10.552Z,13.43
2023-03-07T09:19:37.254Z,16.98
2023-03-07T09:22:07.478Z,23.13
2023-03-07T09:24:58.828Z,22.88
2023-03-07T09:30:00.354Z,22.77
2023-03-07T09:32:27.240Z,25.70
2023-03-07T09:34:54.310Z,19.63
2023-03-07T09:37:21.051Z,23.45
2023-03-07T09:39:49.727Z,22.73
2023-03-07T10:01:14.506Z,22.55
2023-03-07T10:03:52.809Z,22.42
2023-03-07T10:06:31.217Z,19.20
2023-03-07T10:09:00.779Z,21.00
2023-03-07T10:12:07.240Z,23.83
2023-03-07T10:14:40.164Z,21.95
2023-03-07T10:17:45.479Z,17.40
2023-03-07T10:20:38.041Z,20.23
2023-03-07T10:23:17.941Z,21.45
2023-03-07T10:26:33.729Z,21.67
2023-03-07T10:29:44.206Z,18.20
2023-03-07T10:32:29.897Z,16.95
2023-03-07T10:35:12.066Z,18.90
2023-03-07T10:44:21.935Z,18.92
2023-03-07T10:46:56.638Z,16.92
2023-03-07T10:49:31.595Z,20.08
2023-03-07T10:55:38.361Z,18.48
2023-03-07T11:00:35.595Z,17.63
2023-03-07T11:03:02.838Z,15.63
2023-03-07T11:05:36.206Z,17.05
2023-03-07T11:08:25.115Z,15.80
2023-03-07T11:43:11.506Z,16.90
2023-03-07T11:48:49.317Z,17.77
2023-03-07T11:59:38.155Z,13.65
2023-03-07T12:05:52.149Z,12.07
2023-03-07T12:14:03.133Z,12.52
2023-03-07T12:16:38.966Z,10.43
2023-03-07T12:19:32.797Z,12.45
2023-03-07T12:22:24.768Z,13.88
2023-03-07T12:24:58.642Z,14.70
2023-03-07T12:27:54.495Z,9.02
2023-03-07T12:30:50.522Z,11.55
2023-03-07T12:41:12.043Z,12.65
2023-03-07T12:43:47.448Z,10.38
2023-03-07T12:46:55.746Z,11.90
2023-03-07T12:49:44.246Z,13.75
2023-03-07T12:56:44.363Z,10.30
2023-03-07T13:06:40.741Z,9.52
2023-03-07T13:09:17.504Z,9.25
2023-03-07T13:22:30.817Z,8.90
2023-03-07T13:28:42.885Z,11.45
2023-03-07T13:47:40.899Z,10.20
2023-03-07T13:50:35.654Z,10.80
2023-03-07T13:56:51.896Z,9.20
2023-03-07T13:59:24.590Z,9.57
2023-03-07T14:05:26.910Z,9.55
2023-03-07T14:07:58.909Z,7.32
2023-03-07T14:23:41.390Z,8.52
2023-03-07T14:26:38.889Z,8.05
2023-03-07T14:36:01.573Z,6.88
2023-03-07T14:38:32.883Z,9.95
2023-03-07T14:41:12.370Z,7.63
2023-03-07T14:45:00.468Z,9.18
2023-03-07T14:50:29.016Z,9.48
2023-03-07T14:53:21.237Z,7.93
2023-03-07T14:55:51.284Z,6.90
2023-03-07T14:58:27.033Z,7.65
2023-03-07T15:01:04.098Z,8.18
2023-03-07T15:08:35.319Z,9.25
2023-03-07T15:11:41.544Z,6.43
2023-03-07T15:15:04.717Z,9.85
2023-03-07T15:17:43.663Z,8.50
2023-03-07T15:20:25.948Z,6.50
2023-03-07T15:23:07.444Z,8.93
2023-03-07T15:25:38.795Z,8.60
2023-03-07T15:28:16.871Z,7.80
2023-03-07T15:30:52.166Z,11.52
2023-03-07T15:33:28.875Z,8.60
2023-03-07T15:36:19.244Z,9.18
2023-03-07T15:38:50.520Z,9.23
2023-03-07T15:41:33.691Z,8.38
2023-03-07T15:44:26.661Z,7.90
2023-03-07T15:46:56.223Z,6.45
2023-03-07T15:49:28.004Z,7.25
2023-03-07T15:51:59.902Z,12.82
2023-03-07T15:54:32.299Z,6.20
2023-03-07T16:00:04.667Z,7.75
2023-03-07T16:02:37.025Z,9.85
2023-03-07T16:07:56.698Z,7.32
2023-03-07T16:10:30.517Z,7.65
2023-03-07T16:13:01.333Z,6.38
2023-03-07T16:15:28.323Z,5.93
2023-03-07T16:17:56.488Z,6.55
2023-03-07T16:20:26.571Z,6.68
2023-03-07T16:22:53.953Z,8.10
2023-03-07T16:25:22.017Z,6.00
2023-03-07T16:28:09.322Z,8.63
2023-03-07T16:30:36.079Z,6.22
2023-03-07T16:36:50.215Z,8.52
2023-03-07T16:39:18.438Z,8.18
2023-03-07T16:41:49.051Z,7.18
2023-03-07T16:44:18.046Z,7.53
2023-03-07T16:46:46.576Z,8.95
2023-03-07T16:49:27.992Z,7.72
2023-03-07T16:52:31.218Z,6.70
2023-03-07T16:55:55.939Z,7.97
2023-03-07T16:58:29.441Z,7.25
2023-03-07T17:01:00.251Z,9.82
2023-03-07T17:03:29.733Z,9.90
2023-03-07T17:05:56.504Z,8.95
2023-03-07T17:08:23.198Z,9.90
2023-03-07T17:10:50.091Z,7.60
2023-03-07T17:13:18.117Z,6.20
2023-03-07T17:15:47.830Z,5.50
2023-03-07T17:22:03.597Z,5.10
2023-03-07T17:24:31.045Z,8.85
2023-03-07T17:27:07.314Z,7.78
2023-03-07T17:29:38.531Z,6.88
2023-03-07T17:32:06.053Z,7.78
2023-03-07T17:34:35.009Z,7.03
2023-03-07T17:37:19.829Z,7.57
2023-03-07T17:39:46.721Z,8.40
2023-03-07T17:42:13.475Z,6.22
2023-03-07T17:44:40.576Z,7.53
2023-03-07T17:47:07.594Z,8.35
2023-03-07T17:49:36.823Z,5.78
2023-03-07T17:52:05.295Z,6.68
2023-03-07T17:54:32.672Z,7.00
2023-03-07T17:56:59.516Z,5.15
2023-03-07T17:59:26.363Z,8.63
2023-03-07T18:01:53.321Z,5.93
2023-03-07T18:04:20.205Z,6.57
2023-03-07T18:06:47.030Z,5.55
2023-03-07T18:12:13.214Z,7.85
2023-03-07T18:17:22.150Z,4.93
2023-03-07T18:20:11.159Z,6.53
2023-03-07T18:23:45.623Z,5.00
2023-03-07T18:26:14.508Z,5.80
2023-03-07T18:28:43.934Z,8.38
2023-03-07T18:31:15.404Z,5.85
2023-03-07T18:33:42.672Z,4.97
2023-03-07T18:36:15.336Z,5.68
2023-03-07T18:38:42.684Z,5.45
2023-03-07T18:41:15.780Z,6.10
2023-03-07T18:43:43.134Z,5.95
2023-03-07T18:49:17.849Z,5.70
2023-03-07T18:51:46.057Z,7.35
2023-03-07T18:54:14.128Z,4.82
2023-03-07T18:56:41.003Z,5.47
2023-03-07T18:59:07.793Z,4.38
2023-03-07T19:01:36.093Z,4.70
2023-03-07T19:04:05.188Z,6.07
2023-03-07T19:06:34.607Z,5.32
2023-03-07T19:09:03.479Z,4.53
2023-03-07T19:11:31.060Z,6.53
2023-03-07T19:13:57.837Z,4.47
2023-03-07T19:16:40.684Z,5.80
2023-03-07T19:19:07.523Z,4.35
2023-03-07T19:28:00.003Z,5.00
2023-03-07T19:30:28.825Z,4.10
2023-03-07T19:32:55.763Z,5.97
2023-03-07T19:35:22.556Z,4.88
2023-03-07T19:38:12.572Z,6.97
2023-03-07T19:43:08.274Z,5.63
2023-03-07T19:45:40.204Z,5.22
2023-03-07T19:48:07.156Z,4.47
2023-03-07T19:50:33.934Z,3.30
2023-03-07T19:53:02.984Z,4.93
2023-03-07T19:55:30.410Z,4.30
2023-03-07T19:58:29.539Z,5.13
2023-03-07T20:00:59.046Z,5.32
2023-03-07T20:03:25.996Z,4.57
2023-03-07T20:05:54.487Z,4.00
2023-03-07T20:08:21.343Z,4.78
2023-03-07T20:10:49.745Z,7.90
2023-03-07T20:13:21.059Z,5.82
2023-03-07T20:26:26.848Z,6.07
2023-03-07T20:37:58.678Z,5.00
2023-03-07T20:41:11.510Z,5.00
2023-03-07T20:49:55.848Z,5.35
2023-03-07T20:53:03.911Z,6.40
2023-03-07T20:55:39.932Z,7.32
2023-03-07T20:58:10.261Z,8.80
2023-03-07T21:00:37.033Z,6.32
2023-03-07T21:03:06.249Z,6.68
2023-03-07T21:05:36.475Z,8.95
2023-03-07T21:08:03.769Z,6.38
2023-03-07T21:10:33.688Z,10.40
2023-03-07T21:15:42.367Z,8.88
2023-03-07T21:18:09.628Z,8.13
2023-03-07T21:20:42.772Z,8.00
2023-03-07T21:23:09.726Z,11.40
2023-03-07T21:25:36.750Z,14.85
2023-03-07T21:28:22.362Z,12.60
2023-03-07T21:31:11.921Z,14.55
